Time;durP1;ratioP1;P1;durP2;ratioP2;P2;SDS_P1;SDS_P2;PMS_P1;PMS_P2;Temp;Humidity;BMP_temperature;BMP_pressure;BME280_temperature;BME280_humidity;BME280_pressure;Samples;Min_cycle;Max_cycle;Signal;HPM_P1;HPM_P2
2021/04/28 00:00:56;;;;;;;25.37;10.23;;;;;;;3.65;48.57;100328.49;1764981;81;21200;-69
2021/04/28 00:03:22;;;;;;;21.57;10.58;;;;;;;3.62;48.66;100330.55;1764992;81;21178;-69
2021/04/28 00:05:49;;;;;;;26.90;11.15;;;;;;;3.59;48.74;100323.70;1747157;80;21608;-69
2021/04/28 00:08:15;;;;;;;22.60;10.98;;;;;;;3.57;48.82;100325.65;1733624;80;21159;-69
2021/04/28 00:10:41;;;;;;;24.75;10.28;;;;;;;3.52;48.89;100320.75;1782362;80;22072;-69
2021/04/28 00:13:10;;;;;;;23.10;11.18;;;;;;;3.49;48.99;100319.69;1767715;80;21211;-69
2021/04/28 00:15:39;;;;;;;25.92;11.08;;;;;;;3.48;49.05;100318.00;1764765;81;21118;-69
2021/04/28 00:18:05;;;;;;;25.08;10.93;;;;;;;3.44;49.15;100312.66;1764963;80;21616;-69
2021/04/28 00:20:38;;;;;;;26.55;10.85;;;;;;;3.40;49.22;100312.55;1764912;81;21171;-69
2021/04/28 00:23:00;;;;;;;26.97;11.97;;;;;;;3.39;49.31;100312.19;1764465;81;21675;-69
2021/04/28 00:25:26;;;;;;;29.30;11.68;;;;;;;3.36;49.37;100311.60;1765055;81;21148;-69
2021/04/28 00:27:52;;;;;;;37.05;12.07;;;;;;;3.34;49.47;100311.72;1765073;80;21187;-69
2021/04/28 00:30:21;;;;;;;31.70;11.95;;;;;;;3.34;49.55;100303.81;1745784;81;21140;-69
2021/04/28 00:32:49;;;;;;;24.82;11.08;;;;;;;3.32;49.64;100309.70;1763994;81;21179;-69
2021/04/28 00:35:17;;;;;;;26.75;12.30;;;;;;;3.30;49.75;100299.78;1750261;82;21211;-70
2021/04/28 00:37:43;;;;;;;24.70;11.38;;;;;;;3.28;49.84;100301.69;1750188;82;21184;-69
2021/04/28 00:40:23;;;;;;;22.02;11.30;;;;;;;3.25;49.91;100301.94;1750234;81;21640;-69
2021/04/28 00:42:50;;;;;;;21.10;10.85;;;;;;;3.24;50.02;100304.69;1749558;81;21167;-69
2021/04/28 00:45:19;;;;;;;25.35;11.33;;;;;;;3.20;50.12;100300.66;1750315;82;21148;-70
2021/04/28 00:47:46;;;;;;;24.30;11.90;;;;;;;3.16;50.23;100296.12;1750373;82;21207;-69
2021/04/28 00:50:16;;;;;;;20.45;10.80;;;;;;;3.13;50.32;100301.61;1750077;82;21148;-69
2021/04/28 00:52:43;;;;;;;30.17;12.55;;;;;;;3.10;50.41;100295.28;1749696;82;21216;-69
2021/04/28 00:55:11;;;;;;;24.02;10.88;;;;;;;3.06;50.51;100293.88;1754666;81;21143;-69
2021/04/28 00:57:38;;;;;;;31.77;11.00;;;;;;;3.03;50.61;100290.16;1764894;81;21148;-70
2021/04/28 01:00:11;;;;;;;28.83;13.22;;;;;;;3.01;50.73;100288.98;1753101;80;21199;-69
2021/04/28 01:02:37;;;;;;;27.25;10.90;;;;;;;3.01;50.83;100289.45;1760713;81;21187;-69
2021/04/28 01:05:06;;;;;;;28.62;11.30;;;;;;;3.00;50.90;100289.09;1764419;81;21135;-69
2021/04/28 01:07:33;;;;;;;30.50;11.93;;;;;;;2.97;51.00;100284.08;1764172;80;21116;-69
2021/04/28 01:09:59;;;;;;;25.57;10.98;;;;;;;2.94;51.09;100284.33;1764331;81;21175;-69
2021/04/28 01:12:25;;;;;;;26.27;12.60;;;;;;;2.94;51.20;100283.02;1764239;81;21774;-69
2021/04/28 01:14:52;;;;;;;37.10;12.78;;;;;;;2.93;51.29;100277.37;1764230;80;21155;-69
2021/04/28 01:17:19;;;;;;;32.80;13.55;;;;;;;2.89;51.39;100281.22;1764330;81;21148;-69
2021/04/28 01:19:45;;;;;;;35.03;12.93;;;;;;;2.89;51.50;100278.58;1763826;80;21707;-69
2021/04/28 01:22:12;;;;;;;31.00;13.28;;;;;;;2.88;51.57;100280.41;1764120;81;21148;-69
2021/04/28 01:24:39;;;;;;;38.42;14.23;;;;;;;2.87;51.68;100274.77;1764283;81;21200;-69
2021/04/28 01:27:16;;;;;;;37.63;13.83;;;;;;;2.86;51.74;100268.30;1764258;81;21192;-69
2021/04/28 01:29:43;;;;;;;29.75;13.32;;;;;;;2.85;51.82;100273.23;1772777;80;21144;-69
2021/04/28 01:32:12;;;;;;;31.42;12.85;;;;;;;2.82;51.90;100275.61;1782064;80;21176;-69
2021/04/28 01:34:38;;;;;;;38.15;15.60;;;;;;;2.80;52.00;100271.44;1777437;80;21171;-69
2021/04/28 01:37:05;;;;;;;34.53;14.28;;;;;;;2.78;52.08;100271.55;1772092;80;22092;-69
2021/04/28 01:39:32;;;;;;;40.25;13.22;;;;;;;2.79;52.15;100271.08;1764382;81;21144;-69
2021/04/28 01:41:59;;;;;;;27.82;12.43;;;;;;;2.78;52.23;100270.73;1764172;81;21175;-69
2021/04/28 01:44:25;;;;;;;40.60;15.53;;;;;;;2.80;52.33;100266.17;1764276;80;21175;-69
2021/04/28 01:46:52;;;;;;;38.02;14.93;;;;;;;2.79;52.41;100259.22;1764214;81;21136;-69
2021/04/28 01:49:20;;;;;;;35.98;13.95;;;;;;;2.78;52.47;100263.65;1752863;81;22472;-69
2021/04/28 01:51:46;;;;;;;33.90;15.18;;;;;;;2.75;52.54;100257.80;1744573;82;21156;-69
2021/04/28 01:54:17;;;;;;;37.65;14.75;;;;;;;2.74;52.64;100258.78;1755425;81;21163;-69
2021/04/28 01:56:46;;;;;;;35.50;14.65;;;;;;;2.72;52.68;100255.41;1756883;81;21112;-69
2021/04/28 01:59:17;;;;;;;36.88;15.10;;;;;;;2.71;52.77;100256.39;1729380;81;21159;-69
2021/04/28 02:01:45;;;;;;;36.35;14.60;;;;;;;2.69;52.82;100245.13;1756698;81;21231;-69
2021/04/28 02:04:12;;;;;;;32.25;15.40;;;;;;;2.68;52.89;100251.35;1756594;81;21220;-69
2021/04/28 02:06:39;;;;;;;29.25;12.35;;;;;;;2.65;52.94;100238.44;1728977;81;21608;-68
2021/04/28 02:09:06;;;;;;;39.98;12.82;;;;;;;2.65;53.01;100242.39;1756683;81;21154;-69
2021/04/28 02:11:32;;;;;;;34.20;14.60;;;;;;;2.65;53.11;100235.80;1756732;81;21561;-68
2021/04/28 02:13:58;;;;;;;33.28;15.05;;;;;;;2.64;53.15;100232.84;1756858;81;21203;-69
2021/04/28 02:16:26;;;;;;;32.28;14.28;;;;;;;2.60;53.20;100228.78;1756459;81;21155;-69
2021/04/28 02:18:52;;;;;;;29.80;13.20;;;;;;;2.61;53.27;100234.38;1756745;81;21890;-69
2021/04/28 02:21:19;;;;;;;41.60;14.70;;;;;;;2.59;53.33;100233.20;1756764;81;21183;-68
2021/04/28 02:23:46;;;;;;;35.30;15.60;;;;;;;2.60;53.39;100234.05;1756597;80;21156;-69
2021/04/28 02:26:12;;;;;;;26.75;12.93;;;;;;;2.59;53.44;100231.05;1755091;81;21264;-69
2021/04/28 02:28:39;;;;;;;30.97;13.80;;;;;;;2.57;53.52;100229.03;1754982;81;21171;-69
2021/04/28 02:31:05;;;;;;;31.85;13.25;;;;;;;2.56;53.57;100231.30;1755013;81;21196;-69
2021/04/28 02:33:31;;;;;;;28.75;13.20;;;;;;;2.53;53.63;100222.66;1754921;81;21608;-69
2021/04/28 02:35:58;;;;;;;23.85;13.18;;;;;;;2.53;53.70;100227.59;1750478;80;21183;-69
2021/04/28 02:38:32;;;;;;;35.43;14.78;;;;;;;2.52;53.75;100224.13;1787492;79;21273;-69
2021/04/28 02:41:01;;;;;;;32.35;13.50;;;;;;;2.50;53.78;100221.60;1787551;80;21218;-69
2021/04/28 02:43:27;;;;;;;39.80;15.65;;;;;;;2.47;53.84;100222.33;1787873;80;21730;-69
2021/04/28 02:45:53;;;;;;;34.03;14.35;;;;;;;2.45;53.89;100217.20;1787820;80;21132;-68
2021/04/28 02:48:20;;;;;;;28.38;13.40;;;;;;;2.46;53.93;100217.54;1788015;80;21116;-69
2021/04/28 02:50:47;;;;;;;35.20;14.10;;;;;;;2.46;53.98;100212.78;1787505;80;21199;-68
2021/04/28 02:53:14;;;;;;;28.52;12.93;;;;;;;2.42;54.00;100214.82;1752618;81;21181;-68
2021/04/28 02:55:41;;;;;;;35.83;14.60;;;;;;;2.39;54.06;100215.04;1749404;82;21578;-68
2021/04/28 02:58:07;;;;;;;30.80;13.83;;;;;;;2.37;54.11;100211.70;1749506;82;21279;-69
2021/04/28 03:00:34;;;;;;;34.83;13.80;;;;;;;2.36;54.15;100206.08;1749318;81;21116;-68
2021/04/28 03:03:00;;;;;;;30.20;12.95;;;;;;;2.35;54.20;100210.17;1749545;82;21590;-68
2021/04/28 03:05:26;;;;;;;25.97;13.03;;;;;;;2.33;54.25;100208.95;1749430;81;21177;-68
2021/04/28 03:07:53;;;;;;;32.25;14.70;;;;;;;2.33;54.31;100208.12;1749509;82;21164;-68
2021/04/28 03:10:20;;;;;;;28.95;12.33;;;;;;;2.29;54.32;100202.27;1749602;81;21235;-68
2021/04/28 03:12:47;;;;;;;29.57;12.90;;;;;;;2.27;54.36;100208.14;1749379;82;21148;-68
2021/04/28 03:15:18;;;;;;;35.40;14.87;;;;;;;2.27;54.40;100208.14;1749439;81;21594;-68
2021/04/28 03:17:44;;;;;;;28.92;14.13;;;;;;;2.28;54.45;100203.25;1749455;82;21172;-68
2021/04/28 03:20:14;;;;;;;34.10;14.53;;;;;;;2.26;54.51;100199.04;1764861;80;21155;-68
2021/04/28 03:22:40;;;;;;;32.73;14.70;;;;;;;2.28;54.52;100203.72;1782310;80;21612;-68
2021/04/28 03:25:08;;;;;;;31.17;15.00;;;;;;;2.25;54.58;100202.14;1774702;80;21160;-69
2021/04/28 03:27:35;;;;;;;30.95;14.40;;;;;;;2.23;54.63;100210.66;1764463;81;21203;-68
2021/04/28 03:30:01;;;;;;;27.10;12.93;;;;;;;2.21;54.66;100215.21;1763707;81;21484;-69
2021/04/28 03:32:27;;;;;;;28.17;13.98;;;;;;;2.16;54.71;100211.25;1764361;81;21232;-68
2021/04/28 03:34:54;;;;;;;29.75;12.90;;;;;;;2.13;54.78;100213.66;1764246;80;21124;-68
2021/04/28 03:37:20;;;;;;;26.30;13.05;;;;;;;2.11;54.84;100207.66;1764351;81;21148;-68
2021/04/28 03:39:46;;;;;;;35.78;20.72;;;;;;;2.11;54.91;100205.03;1764174;81;21199;-68
2021/04/28 03:42:13;;;;;;;45.15;19.17;;;;;;;2.12;54.96;100209.81;1764012;81;21624;-68
2021/04/28 03:44:39;;;;;;;38.15;16.57;;;;;;;2.11;55.02;100201.09;1764211;80;21187;-68
2021/04/28 03:47:06;;;;;;;53.85;25.80;;;;;;;2.12;55.04;100203.24;1764052;81;21108;-68
2021/04/28 03:49:32;;;;;;;30.68;14.90;;;;;;;2.15;55.09;100203.84;1750709;81;21129;-68
2021/04/28 03:51:58;;;;;;;31.70;14.98;;;;;;;2.17;55.10;100203.73;1749360;82;21211;-68
2021/04/28 03:54:25;;;;;;;27.07;13.28;;;;;;;2.21;55.13;100206.00;1749197;81;21180;-69
2021/04/28 03:56:51;;;;;;;28.57;13.25;;;;;;;2.23;55.16;100201.45;1749362;82;21180;-68
2021/04/28 03:59:18;;;;;;;32.83;14.28;;;;;;;2.26;55.20;100203.83;1750147;81;21164;-68
2021/04/28 04:01:44;;;;;;;33.60;14.98;;;;;;;2.34;55.20;100204.06;1749468;82;21120;-69
2021/04/28 04:04:10;;;;;;;30.25;13.38;;;;;;;2.40;55.22;100205.36;1749176;82;21283;-68
2021/04/28 04:06:37;;;;;;;26.57;12.93;;;;;;;2.62;55.31;100204.47;1749453;81;21124;-68
2021/04/28 04:09:05;;;;;;;24.87;12.30;;;;;;;3.17;55.39;100208.67;1749076;82;21140;-69
2021/04/28 04:11:32;;;;;;;28.45;12.68;;;;;;;3.96;55.35;100195.69;1749438;82;21666;-69
2021/04/28 04:13:58;;;;;;;28.00;12.70;;;;;;;4.68;55.06;100198.59;1749303;81;21171;-69
2021/04/28 04:16:25;;;;;;;27.20;13.00;;;;;;;5.21;54.67;100206.44;1763137;80;21200;-69
2021/04/28 04:18:51;;;;;;;22.98;12.25;;;;;;;5.67;54.26;100200.86;1752037;80;21512;-69
2021/04/28 04:21:18;;;;;;;26.95;13.75;;;;;;;6.07;53.79;100206.75;1732669;82;21164;-69
2021/04/28 04:23:44;;;;;;;20.70;12.13;;;;;;;6.46;53.44;100198.12;1732835;82;21208;-69
2021/04/28 04:26:10;;;;;;;30.02;12.80;;;;;;;6.80;52.86;100203.61;1732846;82;21179;-69
2021/04/28 04:28:37;;;;;;;25.68;12.47;;;;;;;7.04;52.38;100196.72;1754239;80;22036;-69
2021/04/28 04:31:03;;;;;;;25.08;12.93;;;;;;;7.19;51.85;100202.33;1764167;81;21166;-69
2021/04/28 04:33:29;;;;;;;24.10;12.33;;;;;;;7.41;51.35;100203.17;1764124;81;21140;-69
2021/04/28 04:35:56;;;;;;;23.90;13.60;;;;;;;7.62;50.85;100198.00;1764232;81;21639;-69
2021/04/28 04:38:22;;;;;;;25.43;13.53;;;;;;;7.68;50.36;100206.66;1764270;80;21148;-69
2021/04/28 04:40:48;;;;;;;23.30;12.63;;;;;;;7.86;49.97;100208.77;1764464;81;21207;-69
2021/04/28 04:43:15;;;;;;;20.77;12.15;;;;;;;8.00;49.45;100206.36;1764142;81;21187;-69
2021/04/28 04:45:41;;;;;;;22.65;13.25;;;;;;;8.00;48.81;100205.53;1764244;80;21628;-69
2021/04/28 04:48:09;;;;;;;23.70;12.05;;;;;;;7.50;48.21;100207.53;1764234;81;21147;-70
2021/04/28 04:50:36;;;;;;;26.65;12.90;;;;;;;7.46;48.25;100212.81;1764337;81;21573;-69
2021/04/28 04:53:04;;;;;;;28.12;13.60;;;;;;;7.86;48.16;100208.28;1764215;80;22135;-69
2021/04/28 04:55:30;;;;;;;30.12;13.38;;;;;;;8.20;47.61;100198.98;1762471;80;21159;-69
2021/04/28 04:57:56;;;;;;;21.37;13.60;;;;;;;8.31;46.73;100203.20;1749570;81;21151;-69
2021/04/28 05:00:23;;;;;;;24.52;13.30;;;;;;;8.13;46.27;100199.27;1749274;82;21593;-69
2021/04/28 05:02:50;;;;;;;29.07;12.73;;;;;;;7.68;46.23;100206.66;1749630;82;21216;-69
2021/04/28 05:05:16;;;;;;;24.37;12.60;;;;;;;7.45;46.39;100205.02;1756380;81;21220;-69
2021/04/28 05:07:43;;;;;;;24.10;12.73;;;;;;;7.32;46.44;100205.41;1764285;81;21179;-69
2021/04/28 05:10:11;;;;;;;23.92;11.97;;;;;;;7.23;46.43;100199.70;1764050;81;21140;-69
2021/04/28 05:12:37;;;;;;;23.02;12.65;;;;;;;7.25;46.36;100207.00;1764344;81;21159;-69
2021/04/28 05:15:06;;;;;;;22.13;13.25;;;;;;;7.18;46.25;100193.21;1764378;81;21184;-69
2021/04/28 05:17:32;;;;;;;27.58;14.65;;;;;;;7.28;46.17;100202.72;1764187;81;21286;-69
2021/04/28 05:20:00;;;;;;;31.02;24.98;;;;;;;7.45;46.04;100203.20;1764313;81;21723;-70
2021/04/28 05:22:27;;;;;;;30.35;15.32;;;;;;;7.53;45.80;100191.80;1764209;81;21132;-70
2021/04/28 05:24:54;;;;;;;23.30;12.58;;;;;;;7.57;45.67;100197.13;1755735;80;21223;-70
2021/04/28 05:27:20;;;;;;;29.32;12.93;;;;;;;7.66;45.53;100201.52;1749589;81;21609;-70
2021/04/28 05:29:46;;;;;;;24.65;13.70;;;;;;;7.77;45.45;100193.80;1749582;82;21197;-70
2021/04/28 05:32:13;;;;;;;32.95;14.85;;;;;;;7.81;45.27;100199.13;1749406;82;21171;-70
2021/04/28 05:34:39;;;;;;;21.73;13.03;;;;;;;8.05;45.21;100192.62;1749489;82;21216;-70
2021/04/28 05:37:05;;;;;;;24.72;12.35;;;;;;;8.12;44.97;100190.99;1749660;82;21178;-69
2021/04/28 05:39:32;;;;;;;22.50;12.73;;;;;;;8.09;44.73;100193.97;1749343;82;21128;-70
2021/04/28 05:41:58;;;;;;;23.80;12.82;;;;;;;8.21;44.60;100197.16;1749533;81;21461;-70
2021/04/28 05:44:25;;;;;;;25.60;13.40;;;;;;;8.27;44.44;100185.39;1749428;81;21197;-70
2021/04/28 05:46:51;;;;;;;37.53;13.50;;;;;;;8.41;44.30;100191.45;1749528;82;21124;-70
2021/04/28 05:49:18;;;;;;;22.58;12.68;;;;;;;8.61;44.10;100191.19;1749634;82;21164;-70
2021/04/28 05:51:45;;;;;;;26.87;13.93;;;;;;;8.57;43.94;100189.35;1750037;80;21176;-70
2021/04/28 05:54:11;;;;;;;20.15;12.30;;;;;;;8.57;43.76;100192.50;1773918;80;21184;-70
2021/04/28 05:56:40;;;;;;;32.98;15.75;;;;;;;8.69;43.70;100191.22;1786090;80;21782;-70
2021/04/28 05:59:07;;;;;;;36.70;20.60;;;;;;;8.98;43.66;100191.58;1786595;80;21909;-70
2021/04/28 06:01:34;;;;;;;46.18;22.73;;;;;;;9.13;43.38;100189.94;1786429;80;21156;-70
2021/04/28 06:04:00;;;;;;;27.82;14.45;;;;;;;9.08;43.25;100189.59;1786487;80;21698;-70
2021/04/28 06:06:27;;;;;;;32.42;14.53;;;;;;;9.11;43.07;100185.30;1786606;80;21191;-71
2021/04/28 06:08:53;;;;;;;28.62;14.78;;;;;;;9.07;42.90;100182.63;1786252;80;21168;-70
2021/04/28 06:11:19;;;;;;;22.58;13.35;;;;;;;9.15;42.77;100179.95;1786528;80;21116;-70
2021/04/28 06:13:47;;;;;;;23.18;13.35;;;;;;;9.36;42.66;100180.28;1786246;80;21553;-70
2021/04/28 06:16:17;;;;;;;26.82;14.75;;;;;;;9.45;42.54;100179.78;1786621;80;21184;-70
2021/04/28 06:18:43;;;;;;;24.85;13.35;;;;;;;9.52;42.37;100180.77;1786445;79;21194;-70
2021/04/28 06:21:10;;;;;;;27.52;14.35;;;;;;;9.57;42.19;100177.62;1785406;80;21182;-70
2021/04/28 06:23:37;;;;;;;25.35;13.95;;;;;;;9.60;42.03;100183.93;1786510;80;21140;-70
2021/04/28 06:26:04;;;;;;;27.20;13.95;;;;;;;9.72;41.92;100178.56;1786413;80;21164;-70
2021/04/28 06:28:30;;;;;;;26.12;13.28;;;;;;;9.73;41.71;100177.58;1786513;80;21193;-70
2021/04/28 06:30:56;;;;;;;26.40;13.62;;;;;;;9.82;41.59;100180.53;1787860;79;21668;-70
2021/04/28 06:33:23;;;;;;;25.97;14.63;;;;;;;9.95;41.44;100180.86;1791825;80;21155;-70
2021/04/28 06:35:49;;;;;;;25.57;14.13;;;;;;;9.94;41.17;100184.52;1791811;80;21178;-70
2021/04/28 06:38:15;;;;;;;23.35;13.30;;;;;;;10.07;41.05;100182.13;1796715;79;21179;-70
2021/04/28 06:40:42;;;;;;;24.75;14.70;;;;;;;10.17;40.86;100179.32;1799129;79;21116;-70
2021/04/28 06:43:08;;;;;;;27.85;15.25;;;;;;;10.22;40.72;100172.45;1793146;79;22128;-70
2021/04/28 06:45:37;;;;;;;25.12;13.45;;;;;;;10.34;40.61;100179.08;1799213;79;21143;-70
2021/04/28 06:48:05;;;;;;;25.03;13.70;;;;;;;10.41;40.45;100174.68;1797980;79;21135;-70
2021/04/28 06:50:31;;;;;;;27.10;15.03;;;;;;;10.61;40.41;100172.92;1783357;79;21144;-74
2021/04/28 06:52:58;;;;;;;32.58;18.30;;;;;;;10.74;40.27;100171.83;1790709;79;21182;-71
2021/04/28 06:55:24;;;;;;;30.48;15.83;;;;;;;10.87;40.14;100168.10;1762550;79;21187;-70
2021/04/28 06:57:55;;;;;;;22.67;14.95;;;;;;;10.90;39.95;100171.74;1753711;81;21191;-71
2021/04/28 07:00:20;;;;;;;22.37;13.35;;;;;;;11.01;39.89;100166.80;1753706;81;21148;-70
2021/04/28 07:02:46;;;;;;;29.00;13.30;;;;;;;11.22;39.79;100158.16;1753885;81;21127;-70
2021/04/28 07:05:13;;;;;;;25.82;14.15;;;;;;;11.44;39.72;100158.60;1753845;81;21740;-70
2021/04/28 07:07:39;;;;;;;28.83;13.05;;;;;;;11.28;39.57;100160.09;1755847;81;21154;-70
2021/04/28 07:10:07;;;;;;;28.23;14.50;;;;;;;10.99;39.42;100154.66;1753782;81;21156;-71
2021/04/28 07:12:34;;;;;;;31.60;15.40;;;;;;;10.96;39.48;100152.34;1753879;81;21604;-71
2021/04/28 07:15:00;;;;;;;23.95;14.55;;;;;;;11.25;39.49;100157.79;1753996;81;21147;-70
2021/04/28 07:17:26;;;;;;;34.15;17.75;;;;;;;11.43;39.45;100160.94;1754030;81;21175;-70
2021/04/28 07:19:53;;;;;;;27.42;15.63;;;;;;;11.81;39.47;100160.94;1754729;81;21200;-71
2021/04/28 07:22:20;;;;;;;29.55;14.07;;;;;;;12.15;39.41;100155.86;1752685;80;21191;-70
2021/04/28 07:24:48;;;;;;;26.50;13.98;;;;;;;12.31;39.16;100149.49;1748696;80;21131;-70
2021/04/28 07:27:15;;;;;;;22.93;13.28;;;;;;;12.16;39.05;100146.83;1712880;82;21213;-70
2021/04/28 07:29:42;;;;;;;23.02;12.55;;;;;;;12.22;39.05;100140.73;1729135;81;21212;-71
2021/04/28 07:32:09;;;;;;;22.50;12.70;;;;;;;12.27;38.84;100145.53;1726683;81;21174;-70
2021/04/28 07:34:35;;;;;;;25.75;12.10;;;;;;;12.52;38.67;100139.64;1733019;81;21171;-70
2021/04/28 07:37:03;;;;;;;23.05;13.28;;;;;;;12.91;38.43;100132.53;1733356;81;21161;-70
2021/04/28 07:39:30;;;;;;;25.25;13.98;;;;;;;13.09;38.16;100127.27;1729371;81;21164;-70
2021/04/28 07:41:56;;;;;;;23.27;13.18;;;;;;;13.23;38.05;100126.39;1734730;81;21167;-71
2021/04/28 07:44:25;;;;;;;28.23;12.28;;;;;;;13.29;37.85;100124.27;1731738;81;21277;-70
2021/04/28 07:46:53;;;;;;;21.68;13.22;;;;;;;13.41;37.79;100124.03;1724351;81;21727;-70
2021/04/28 07:49:19;;;;;;;22.45;11.65;;;;;;;13.55;37.57;100127.63;1725653;81;21175;-70
2021/04/28 07:51:46;;;;;;;19.45;13.10;;;;;;;13.53;37.27;100122.48;1725210;81;21772;-71
2021/04/28 07:54:12;;;;;;;23.02;11.70;;;;;;;13.47;37.12;100121.40;1731968;81;21139;-71
2021/04/28 07:56:38;;;;;;;15.63;10.53;;;;;;;13.48;36.99;100123.06;1738588;81;21278;-71
2021/04/28 07:59:05;;;;;;;20.25;11.45;;;;;;;13.44;36.74;100129.83;1728310;81;21226;-71
2021/04/28 08:01:31;;;;;;;19.87;11.70;;;;;;;13.31;36.55;100128.40;1724197;81;21148;-71
2021/04/28 08:03:59;;;;;;;19.82;12.63;;;;;;;13.46;36.44;100122.45;1728634;81;21230;-71
2021/04/28 08:06:25;;;;;;;18.90;10.53;;;;;;;13.64;36.30;100129.16;1724188;81;21620;-71
2021/04/28 08:08:51;;;;;;;19.82;10.78;;;;;;;13.63;35.95;100126.15;1723789;81;22574;-71
2021/04/28 08:11:18;;;;;;;22.73;11.78;;;;;;;13.32;35.47;100118.02;1720649;81;21190;-71
2021/04/28 08:13:47;;;;;;;19.55;12.35;;;;;;;12.91;35.19;100122.37;1714812;81;21213;-71
2021/04/28 08:16:16;;;;;;;22.05;10.98;;;;;;;12.83;35.14;100115.80;1730194;81;21206;-71
2021/04/28 08:18:44;;;;;;;20.70;11.22;;;;;;;13.13;35.14;100124.53;1729120;81;21169;-72
2021/04/28 08:21:11;;;;;;;21.68;11.75;;;;;;;13.21;34.82;100117.20;1714919;81;22151;-72
2021/04/28 08:23:42;;;;;;;20.72;13.03;;;;;;;13.35;34.86;100114.11;1722574;81;21219;-73
2021/04/28 08:26:05;;;;;;;19.62;10.13;;;;;;;13.48;34.70;100107.50;1723039;81;21178;-72
2021/04/28 08:28:31;;;;;;;23.70;11.53;;;;;;;13.61;34.63;100108.11;1721360;81;21195;-73
2021/04/28 08:30:58;;;;;;;16.50;10.45;;;;;;;13.60;34.47;100103.77;1723541;81;21178;-73
2021/04/28 08:33:24;;;;;;;17.82;11.28;;;;;;;13.61;34.31;100089.36;1726225;81;22326;-73
2021/04/28 08:35:50;;;;;;;20.30;12.07;;;;;;;13.68;34.16;100099.60;1721066;81;21178;-72
2021/04/28 08:38:17;;;;;;;15.08;10.08;;;;;;;13.71;33.96;100081.78;1723948;81;21183;-72
2021/04/28 08:40:43;;;;;;;16.10;9.55;;;;;;;14.03;33.78;100097.21;1728919;82;21162;-73
2021/04/28 08:43:09;;;;;;;15.40;8.03;;;;;;;14.14;33.74;100091.80;1735126;82;21647;-72
2021/04/28 08:45:36;;;;;;;15.30;8.28;;;;;;;14.17;33.45;100072.10;1731444;82;21654;-72
2021/04/28 08:48:02;;;;;;;17.55;7.78;;;;;;;14.01;32.83;100083.16;1715493;82;21637;-72
2021/04/28 08:50:28;;;;;;;11.60;7.10;;;;;;;14.01;32.83;100083.16;1702678;83;21645;-72
2021/04/28 08:52:55;;;;;;;13.53;8.95;;;;;;;13.96;32.09;100090.99;1726418;82;21174;-72
2021/04/28 08:55:22;;;;;;;12.15;8.63;;;;;;;14.06;31.93;100091.95;1721087;81;21545;-73
2021/04/28 08:57:48;;;;;;;14.65;8.30;;;;;;;14.15;31.75;100066.09;1698238;82;21712;-72
2021/04/28 09:00:16;;;;;;;14.00;8.45;;;;;;;14.22;31.64;100062.09;1716956;82;21199;-72
2021/04/28 09:02:53;;;;;;;14.70;7.60;;;;;;;14.22;31.64;100062.09;1734681;82;21159;-72
2021/04/28 09:05:21;;;;;;;17.98;8.28;;;;;;;14.51;31.10;100104.73;1726051;82;21189;-71
2021/04/28 09:07:47;;;;;;;11.48;8.00;;;;;;;14.40;30.61;100090.05;1713568;82;21157;-72
2021/04/28 09:10:26;;;;;;;12.95;8.30;;;;;;;14.31;30.40;100083.70;1712790;83;21438;-71
2021/04/28 09:13:04;;;;;;;18.07;9.73;;;;;;;14.25;30.19;100088.00;1713874;83;21183;-72
2021/04/28 09:15:43;;;;;;;14.30;8.55;;;;;;;14.29;30.30;100070.98;1725950;83;21179;-72
2021/04/28 09:18:12;;;;;;;17.07;9.28;;;;;;;14.55;30.25;100079.66;1669201;84;21631;-71
2021/04/28 09:20:50;;;;;;;14.15;8.30;;;;;;;14.33;30.02;100071.73;1704946;83;21175;-70
2021/04/28 09:23:17;;;;;;;17.57;8.85;;;;;;;14.30;29.99;100072.14;1714399;82;21229;-72
2021/04/28 09:25:54;;;;;;;15.17;8.93;;;;;;;14.05;30.00;100069.67;1732119;82;21191;-73
2021/04/28 09:28:32;;;;;;;16.00;9.28;;;;;;;13.98;30.16;100062.12;1719980;82;21235;-72
2021/04/28 09:31:12;;;;;;;15.15;8.78;;;;;;;14.08;30.17;100061.73;1720085;83;21187;-72
2021/04/28 09:33:50;;;;;;;20.17;9.70;;;;;;;14.02;30.45;100058.02;1728698;83;26923;-72
2021/04/28 09:36:39;;;;;;;16.57;9.70;;;;;;;14.19;30.51;100051.27;1715156;83;22023;-73
2021/04/28 09:39:20;;;;;;;15.60;9.83;;;;;;;14.46;30.68;100051.66;1712463;82;21247;-72
2021/04/28 09:41:50;;;;;;;15.20;9.60;;;;;;;14.40;30.70;100036.90;1708408;83;21127;-72
2021/04/28 09:44:30;;;;;;;16.42;10.08;;;;;;;14.44;30.80;100052.40;1710753;83;21198;-72
2021/04/28 09:47:21;;;;;;;20.27;10.28;;;;;;;14.44;30.92;100051.05;1705977;83;21199;-73
2021/04/28 09:50:01;;;;;;;17.45;10.00;;;;;;;14.42;31.04;100041.05;1719323;82;21211;-71
2021/04/28 09:52:37;;;;;;;24.77;10.80;;;;;;;14.29;31.17;100040.97;1729654;82;21791;-72
2021/04/28 09:55:12;;;;;;;15.23;10.53;;;;;;;14.13;31.33;100044.03;1711762;82;21643;-69
2021/04/28 09:57:46;;;;;;;15.55;10.95;;;;;;;14.08;31.52;100038.43;1705273;82;21614;-71
2021/04/28 10:00:27;;;;;;;19.42;10.03;;;;;;;14.21;31.82;100036.33;1720286;82;21208;-71
2021/04/28 10:03:04;;;;;;;19.32;11.00;;;;;;;14.21;31.82;100036.33;1712609;82;22068;-71
2021/04/28 10:05:41;;;;;;;18.70;10.45;;;;;;;14.07;32.04;100031.44;1714897;82;21308;-71
2021/04/28 10:11:00;;;;;;;18.27;10.25;;;;;;;13.93;32.07;100019.81;1806522;77;22676;-71
2021/04/28 10:13:26;;;;;;;18.80;11.22;;;;;;;13.93;32.20;100021.69;1764920;79;21219;-71
2021/04/28 10:15:53;;;;;;;21.55;11.03;;;;;;;13.92;32.29;100016.01;1763155;81;22159;-72
2021/04/28 10:18:22;;;;;;;21.55;10.32;;;;;;;13.85;32.38;100008.45;1783360;79;21065;-72
2021/04/28 10:20:50;;;;;;;22.70;11.67;;;;;;;13.95;32.56;100015.09;1769214;79;21179;-73
2021/04/28 10:23:17;;;;;;;20.00;11.08;;;;;;;14.49;32.68;100008.32;1771174;79;21208;-72
2021/04/28 10:25:47;;;;;;;21.37;10.53;;;;;;;14.49;32.68;100008.32;1785762;80;21722;-72
2021/04/28 10:28:14;;;;;;;15.83;11.18;;;;;;;14.67;32.49;100000.20;1787760;79;21203;-72
2021/04/28 10:30:42;;;;;;;17.50;11.70;;;;;;;14.67;32.49;100000.20;1796343;79;21155;-72
2021/04/28 10:33:22;;;;;;;22.62;11.83;;;;;;;14.81;32.66;99989.78;1793665;79;21567;-72
2021/04/28 10:35:50;;;;;;;21.00;11.95;;;;;;;14.98;32.65;100000.41;1787107;79;21226;-71
2021/04/28 10:38:25;;;;;;;15.63;10.45;;;;;;;15.00;32.65;99988.92;1771264;79;21122;-72
2021/04/28 10:40:52;;;;;;;14.55;10.38;;;;;;;15.21;32.76;99978.45;1741949;81;22438;-72
2021/04/28 10:43:20;;;;;;;16.00;10.70;;;;;;;15.43;32.78;99979.33;1749972;81;21187;-72
2021/04/28 10:45:48;;;;;;;21.73;11.68;;;;;;;15.36;32.68;99966.44;1756620;80;21155;-72
2021/04/28 10:48:21;;;;;;;21.48;11.22;;;;;;;15.38;32.78;99967.03;1762199;80;21192;-72
2021/04/28 10:50:45;;;;;;;26.27;12.18;;;;;;;15.55;32.91;99963.93;1697994;82;21651;-72
2021/04/28 10:53:23;;;;;;;21.03;11.73;;;;;;;15.72;32.98;99965.09;1773998;80;21194;-72
2021/04/28 10:56:12;;;;;;;22.58;11.43;;;;;;;15.74;32.99;99963.00;1786335;80;21144;-72
2021/04/28 10:58:40;;;;;;;24.52;11.03;;;;;;;15.83;33.10;99956.36;1761273;80;21153;-72
2021/04/28 11:01:16;;;;;;;19.80;11.97;;;;;;;15.88;33.15;99959.21;1785713;80;21607;-72
2021/04/28 11:03:53;;;;;;;21.37;10.88;;;;;;;15.88;33.17;99951.14;1778867;80;21579;-72
2021/04/28 11:06:26;;;;;;;22.40;12.55;;;;;;;15.82;33.12;99963.59;1758909;81;21200;-72
2021/04/28 11:09:06;;;;;;;20.00;11.28;;;;;;;15.67;33.09;99959.52;1770672;80;21790;-72
2021/04/28 11:11:41;;;;;;;;;;;;;;;15.60;33.15;99960.90;1776394;80;21227;-72
2021/04/28 11:14:18;;;;;;;16.70;10.95;;;;;;;15.60;33.18;99957.38;1763695;80;20284;-72
2021/04/28 11:16:46;;;;;;;20.75;10.90;;;;;;;15.51;33.25;99960.02;1759027;80;21818;-72
2021/04/28 11:19:20;;;;;;;17.52;10.65;;;;;;;15.57;33.29;99954.61;1751538;81;21695;-72
2021/04/28 11:21:52;;;;;;;20.80;11.68;;;;;;;15.57;33.34;99947.89;1749816;81;21139;-72